createdAt,value
2019-04-26T00:01:50.454Z,98659.59
2019-04-26T00:04:22.854Z,98659.59
2019-04-26T00:06:55.131Z,98671.09
2019-04-26T00:09:38.751Z,98676.19
2019-04-26T00:12:22.842Z,98683.80
2019-04-26T00:15:07.588Z,98688.30
2019-04-26T00:17:44.725Z,98694.20
2019-04-26T00:20:17.116Z,98704.04
2019-04-26T00:22:49.179Z,98700.09
2019-04-26T00:25:21.028Z,98697.36
2019-04-26T00:27:53.073Z,98688.08
2019-04-26T00:30:25.183Z,98690.44
2019-04-26T00:32:57.548Z,98699.64
2019-04-26T00:35:29.170Z,98699.64
2019-04-26T00:38:00.976Z,98711.63
2019-04-26T00:40:33.094Z,98716.22
2019-04-26T00:43:05.983Z,98712.64
2019-04-26T00:45:38.815Z,98712.64
2019-04-26T00:48:12.530Z,98715.22
2019-04-26T00:50:48.367Z,98731.09
2019-04-26T00:53:21.790Z,98731.09
2019-04-26T00:55:54.957Z,98738.55
2019-04-26T00:58:28.673Z,98738.55
2019-04-26T01:01:02.525Z,98742.68
2019-04-26T01:03:36.447Z,98771.95
2019-04-26T01:06:11.828Z,98779.47
2019-04-26T01:08:44.878Z,98796.53
2019-04-26T01:11:17.749Z,98801.17
2019-04-26T01:13:50.249Z,98801.17
2019-04-26T01:16:22.972Z,98795.09
2019-04-26T01:18:56.680Z,98798.47
2019-04-26T01:21:33.788Z,98804.59
2019-04-26T01:24:08.821Z,98814.36
2019-04-26T01:26:42.903Z,98803.30
2019-04-26T01:29:19.580Z,98803.30
2019-04-26T01:32:07.341Z,98805.72
2019-04-26T01:34:41.516Z,98805.72
2019-04-26T01:37:15.032Z,98812.40
2019-04-26T01:39:55.045Z,98809.11
2019-04-26T01:42:44.938Z,98808.87
2019-04-26T01:45:26.057Z,98808.87
2019-04-26T01:48:01.125Z,98812.45
2019-04-26T01:50:36.018Z,98819.77
2019-04-26T01:53:08.283Z,98814.43
2019-04-26T01:55:40.141Z,98814.43
2019-04-26T01:58:12.658Z,98815.20
2019-04-26T02:01:09.305Z,98825.95
2019-04-26T02:03:41.464Z,98825.95
2019-04-26T02:06:24.971Z,98833.77
2019-04-26T02:08:47.785Z,98845.66
2019-04-26T02:11:19.971Z,98845.66
2019-04-26T02:13:51.684Z,98870.37
2019-04-26T02:16:25.619Z,98870.37
2019-04-26T02:18:57.604Z,98876.11
2019-04-26T02:21:34.297Z,98888.41
2019-04-26T02:24:18.211Z,98888.41
2019-04-26T02:26:51.020Z,98882.02
2019-04-26T02:29:28.660Z,98893.17
2019-04-26T02:32:05.105Z,98893.17
2019-04-26T02:34:38.452Z,98894.92
2019-04-26T02:37:13.358Z,98894.92
2019-04-26T02:39:50.065Z,98890.56
2019-04-26T02:42:29.899Z,98887.02
2019-04-26T02:45:29.995Z,98887.02
2019-04-26T02:48:34.784Z,98894.82
2019-04-26T02:51:11.006Z,98889.23
2019-04-26T02:53:52.513Z,98899.94
2019-04-26T02:56:36.246Z,98915.24
2019-04-26T02:59:45.876Z,98905.47
2019-04-26T03:02:30.093Z,98905.47
2019-04-26T03:05:05.927Z,98915.78
2019-04-26T03:08:01.246Z,98915.78
2019-04-26T03:10:40.392Z,98919.42
2019-04-26T03:13:23.623Z,98921.41
2019-04-26T03:16:14.433Z,98921.41
2019-04-26T03:19:15.874Z,98920.95
2019-04-26T03:22:35.633Z,98913.35
2019-04-26T03:25:21.283Z,98921.55
2019-04-26T03:28:37.627Z,98919.63
2019-04-26T03:31:28.276Z,98918.45
2019-04-26T03:34:22.881Z,98918.45
2019-04-26T03:38:04.995Z,98921.05
2019-04-26T03:41:14.229Z,98937.19
2019-04-26T03:44:02.833Z,98925.61
2019-04-26T03:46:45.149Z,98925.61
2019-04-26T03:49:48.884Z,98919.55
2019-04-26T03:52:42.125Z,98923.94
2019-04-26T03:55:50.990Z,98923.94
2019-04-26T03:58:35.854Z,98923.73
2019-04-26T04:01:11.817Z,98924.93
2019-04-26T04:03:58.846Z,98924.93
2019-04-26T04:06:52.405Z,98932.50
2019-04-26T04:09:13.146Z,98936.63
2019-04-26T04:12:10.840Z,98932.80
2019-04-26T04:15:00.881Z,98932.80
2019-04-26T04:17:57.736Z,98926.10
2019-04-26T04:21:31.447Z,98926.10
2019-04-26T04:24:22.741Z,98931.12
2019-04-26T04:27:31.516Z,98931.12
2019-04-26T04:30:53.045Z,98930.40
2019-04-26T04:34:11.376Z,98928.46
2019-04-26T04:36:51.164Z,98922.88
2019-04-26T04:40:08.689Z,98928.46
2019-04-26T04:43:14.414Z,98928.46
2019-04-26T04:46:26.586Z,98923.50
2019-04-26T04:49:25.126Z,98926.92
2019-04-26T04:52:24.214Z,98931.66
2019-04-26T04:55:08.144Z,98932.48
2019-04-26T04:57:58.128Z,98925.98
2019-04-26T05:01:14.500Z,98920.61
2019-04-26T05:04:11.222Z,98923.09
2019-04-26T05:07:25.893Z,98923.09
2019-04-26T05:10:22.826Z,98917.39
2019-04-26T05:13:22.035Z,98917.39
2019-04-26T05:16:33.063Z,98909.63
2019-04-26T05:19:42.568Z,98909.63
2019-04-26T05:22:57.987Z,98906.45
2019-04-26T05:26:22.048Z,98906.45
2019-04-26T05:29:22.944Z,98903.63
2019-04-26T05:32:14.016Z,98903.81
2019-04-26T05:34:54.782Z,98897.42
2019-04-26T05:37:57.359Z,98889.48
2019-04-26T05:41:35.765Z,98888.37
2019-04-26T05:44:22.703Z,98886.16
2019-04-26T05:47:12.753Z,98886.16
2019-04-26T05:50:35.473Z,98878.89
2019-04-26T05:53:53.355Z,98876.27
2019-04-26T05:57:18.448Z,98869.94
2019-04-26T06:00:27.592Z,98854.94
2019-04-26T06:03:38.870Z,98854.94
2019-04-26T06:06:33.467Z,98844.24
2019-04-26T06:09:51.853Z,98838.22
2019-04-26T06:12:40.757Z,98838.22
2019-04-26T06:15:43.551Z,98830.02
2019-04-26T06:18:45.582Z,98823.88
2019-04-26T06:21:43.714Z,98824.92
2019-04-26T06:24:37.800Z,98824.92
2019-04-26T06:27:51.952Z,98826.28
2019-04-26T06:30:30.561Z,98821.30
2019-04-26T06:33:13.022Z,98814.23
2019-04-26T06:35:49.389Z,98819.88
2019-04-26T06:39:33.122Z,98815.09
2019-04-26T06:42:51.683Z,98809.34
2019-04-26T06:45:59.219Z,98809.34
2019-04-26T06:49:13.686Z,98794.33
2019-04-26T06:51:53.240Z,98800.56
2019-04-26T06:55:04.326Z,98800.56
2019-04-26T06:58:15.692Z,98795.43
2019-04-26T07:01:23.394Z,98787.69
2019-04-26T07:04:22.957Z,98790.48
2019-04-26T07:07:40.269Z,98780.82
2019-04-26T07:10:21.097Z,98771.95
2019-04-26T07:13:46.227Z,98772.88
2019-04-26T07:16:35.224Z,98765.05
2019-04-26T07:20:07.694Z,98765.05
2019-04-26T07:23:13.830Z,98762.45
2019-04-26T07:26:31.093Z,98766.66
2019-04-26T07:29:30.029Z,98752.31
2019-04-26T07:32:12.934Z,98752.31
2019-04-26T07:35:00.220Z,98747.07
2019-04-26T07:38:16.209Z,98738.95
2019-04-26T07:41:40.515Z,98739.12
2019-04-26T07:44:44.621Z,98739.12
2019-04-26T07:47:44.253Z,98740.45
2019-04-26T07:50:54.305Z,98728.27
2019-04-26T07:54:03.917Z,98728.27
2019-04-26T07:57:06.666Z,98715.03
2019-04-26T08:00:19.314Z,98712.47
2019-04-26T08:03:27.483Z,98714.38
2019-04-26T08:06:11.547Z,98707.20
2019-04-26T08:08:53.349Z,98686.52
2019-04-26T08:11:36.154Z,98686.52
2019-04-26T08:14:16.287Z,98684.45
2019-04-26T08:17:16.417Z,98685.31
2019-04-26T08:20:02.209Z,98685.31
2019-04-26T08:22:37.765Z,98669.12
2019-04-26T08:25:10.970Z,98669.12
2019-04-26T08:27:45.896Z,98661.75
2019-04-26T08:30:19.293Z,98653.38
2019-04-26T08:33:02.021Z,98653.38
2019-04-26T08:35:36.418Z,98652.27
2019-04-26T08:38:18.087Z,98654.27
2019-04-26T08:40:45.803Z,98654.27
2019-04-26T08:43:42.902Z,98655.59
2019-04-26T08:46:39.638Z,98655.59
2019-04-26T08:49:35.132Z,98635.08
2019-04-26T08:52:14.666Z,98632.39
2019-04-26T08:54:53.114Z,98636.30
2019-04-26T08:57:28.535Z,98636.30
2019-04-26T09:00:03.528Z,98625.08
2019-04-26T09:02:52.763Z,98622.77
2019-04-26T09:05:49.965Z,98617.78
2019-04-26T09:08:26.237Z,98621.27
2019-04-26T09:11:01.751Z,98608.78
2019-04-26T09:13:37.886Z,98611.39
2019-04-26T09:16:15.366Z,98600.94
2019-04-26T09:18:53.067Z,98597.63
2019-04-26T09:21:47.487Z,98597.63
2019-04-26T09:24:37.756Z,98592.40
2019-04-26T09:27:22.526Z,98587.80
2019-04-26T09:30:34.352Z,98588.33
2019-04-26T09:33:10.120Z,98580.75
2019-04-26T09:35:42.138Z,98586.16
2019-04-26T09:38:14.754Z,98586.16
2019-04-26T09:40:47.513Z,98573.03
2019-04-26T09:43:39.224Z,98575.41
2019-04-26T09:46:29.086Z,98568.19
2019-04-26T09:49:20.213Z,98578.41
2019-04-26T09:51:53.293Z,98570.70
2019-04-26T09:54:25.330Z,98570.70
2019-04-26T09:56:58.365Z,98566.20
2019-04-26T09:59:31.446Z,98566.20
2019-04-26T10:02:04.300Z,98562.85
2019-04-26T10:04:36.127Z,98557.00
2019-04-26T10:07:08.017Z,98556.83
2019-04-26T10:09:39.735Z,98556.83
2019-04-26T10:12:23.938Z,98550.08
2019-04-26T10:15:06.493Z,98554.75
2019-04-26T10:17:38.390Z,98543.45
2019-04-26T10:20:10.978Z,98543.45
2019-04-26T10:22:43.041Z,98539.92
2019-04-26T10:25:16.830Z,98525.32
2019-04-26T10:27:48.177Z,98528.25
2019-04-26T10:30:20.455Z,98532.86
2019-04-26T10:32:52.291Z,98532.86
2019-04-26T10:35:24.131Z,98531.51
2019-04-26T10:37:55.826Z,98527.78
2019-04-26T10:40:35.363Z,98524.30
2019-04-26T10:43:01.556Z,98524.30
2019-04-26T10:45:33.392Z,98522.84
2019-04-26T10:48:05.080Z,98509.20
2019-04-26T10:50:37.073Z,98509.86
2019-04-26T10:53:30.068Z,98509.86
2019-04-26T10:56:10.190Z,98502.34
2019-04-26T10:59:09.839Z,98502.34
2019-04-26T11:01:40.573Z,98503.80
2019-04-26T11:04:12.717Z,98503.80
2019-04-26T11:06:44.767Z,98502.45
2019-04-26T11:09:16.470Z,98497.83
2019-04-26T11:11:49.065Z,98499.06
2019-04-26T11:14:22.669Z,98499.06
2019-04-26T11:16:56.021Z,98500.53
2019-04-26T11:19:27.939Z,98498.58
2019-04-26T11:21:59.761Z,98494.43
2019-04-26T11:24:31.611Z,98494.77
2019-04-26T11:27:05.325Z,98490.55
2019-04-26T11:29:36.898Z,98484.40
2019-04-26T11:32:09.399Z,98484.40
2019-04-26T11:34:42.857Z,98489.14
2019-04-26T11:37:17.794Z,98489.14
2019-04-26T11:39:49.374Z,98489.02
2019-04-26T11:42:20.900Z,98491.43
2019-04-26T11:44:52.750Z,98491.43
2019-04-26T11:47:24.304Z,98493.32
2019-04-26T11:49:56.279Z,98493.89
2019-04-26T11:52:28.079Z,98490.96
2019-04-26T11:55:00.010Z,98489.46
2019-04-26T11:57:32.109Z,98489.46
2019-04-26T12:00:05.581Z,98488.22
2019-04-26T12:02:38.694Z,98495.45
2019-04-26T12:05:23.059Z,98497.82
2019-04-26T12:08:00.705Z,98497.82
2019-04-26T12:10:32.326Z,98498.53
2019-04-26T12:13:05.808Z,98503.55
2019-04-26T12:15:39.062Z,98499.51
2019-04-26T12:18:11.423Z,98501.98
2019-04-26T12:20:43.002Z,98497.40
2019-04-26T12:23:20.787Z,98498.49
2019-04-26T12:25:49.974Z,98506.13
2019-04-26T12:28:22.216Z,98502.94
2019-04-26T12:30:58.482Z,98502.94
2019-04-26T12:33:27.606Z,98504.55
2019-04-26T12:35:59.225Z,98513.80
2019-04-26T12:38:51.225Z,98509.23
2019-04-26T12:41:39.537Z,98506.45
2019-04-26T12:43:59.642Z,98509.02
2019-04-26T12:47:08.075Z,98517.34
2019-04-26T12:49:41.386Z,98517.62
2019-04-26T12:52:13.190Z,98523.48
2019-04-26T12:54:45.099Z,98528.52
2019-04-26T12:57:16.843Z,98532.64
2019-04-26T12:59:49.322Z,98529.02
2019-04-26T13:02:21.963Z,98529.93
2019-04-26T13:04:53.800Z,98529.13
2019-04-26T13:07:25.652Z,98528.96
2019-04-26T13:10:26.247Z,98530.69
2019-04-26T13:13:19.918Z,98536.91
2019-04-26T13:16:14.486Z,98538.03
2019-04-26T13:18:46.988Z,98538.91
2019-04-26T13:21:18.728Z,98544.20
2019-04-26T13:23:51.433Z,98543.55
2019-04-26T13:26:23.729Z,98549.05
2019-04-26T13:28:57.262Z,98554.13
2019-04-26T13:31:31.586Z,98554.13
2019-04-26T13:34:05.205Z,98559.21
2019-04-26T13:36:38.227Z,98559.21
2019-04-26T13:39:17.135Z,98557.72
2019-04-26T13:41:46.863Z,98561.84
2019-04-26T13:44:39.352Z,98568.13
2019-04-26T13:47:29.788Z,98568.13
2019-04-26T13:50:11.870Z,98573.20
2019-04-26T13:52:43.499Z,98571.25
2019-04-26T13:55:15.828Z,98576.63
2019-04-26T13:57:47.414Z,98584.96
2019-04-26T14:00:29.656Z,98584.96
2019-04-26T14:03:02.009Z,98581.89
2019-04-26T14:05:34.136Z,98603.69
2019-04-26T14:08:06.064Z,98610.94
2019-04-26T14:10:38.153Z,98610.94
2019-04-26T14:13:10.070Z,98611.50
2019-04-26T14:15:44.055Z,98619.05
2019-04-26T14:18:15.363Z,98619.05
2019-04-26T14:20:47.413Z,98626.61
2019-04-26T14:23:45.381Z,98633.36
2019-04-26T14:26:23.286Z,98633.36
2019-04-26T14:28:58.163Z,98634.83
2019-04-26T14:31:28.837Z,98644.58
2019-04-26T14:34:05.459Z,98648.83
2019-04-26T14:36:36.213Z,98648.83
2019-04-26T14:39:10.631Z,98650.16
2019-04-26T14:41:44.678Z,98653.16
2019-04-26T14:44:17.411Z,98660.91
2019-04-26T14:46:53.309Z,98664.42
2019-04-26T14:49:25.003Z,98666.47
2019-04-26T14:51:57.845Z,98666.47
2019-04-26T14:54:30.130Z,98666.30
2019-04-26T14:57:07.662Z,98669.89
2019-04-26T14:59:47.653Z,98666.91
2019-04-26T15:02:37.247Z,98666.91
2019-04-26T15:05:33.233Z,98664.61
2019-04-26T15:08:09.727Z,98662.02
2019-04-26T15:10:44.399Z,98671.42
2019-04-26T15:13:20.088Z,98667.82
2019-04-26T15:15:47.509Z,98672.37
2019-04-26T15:18:23.936Z,98680.42
2019-04-26T15:20:57.092Z,98684.98
2019-04-26T15:23:29.136Z,98684.98
2019-04-26T15:26:02.972Z,98689.53
2019-04-26T15:28:35.251Z,98688.58
2019-04-26T15:31:09.682Z,98688.58
2019-04-26T15:33:44.144Z,98695.81
2019-04-26T15:36:15.614Z,98695.81
2019-04-26T15:38:49.394Z,98702.12
2019-04-26T15:41:30.824Z,98699.13
2019-04-26T15:44:20.325Z,98700.47
2019-04-26T15:46:59.724Z,98696.25
2019-04-26T15:49:37.110Z,98690.30
2019-04-26T15:52:10.025Z,98690.30
2019-04-26T15:54:42.649Z,98688.95
2019-04-26T15:57:15.068Z,98693.41
2019-04-26T15:59:47.639Z,98693.41
2019-04-26T16:02:24.624Z,98694.55
2019-04-26T16:04:54.368Z,98696.60
2019-04-26T16:07:28.839Z,98699.16
2019-04-26T16:10:04.496Z,98697.42
2019-04-26T16:12:36.799Z,98700.00
2019-04-26T16:15:11.358Z,98700.00
2019-04-26T16:17:43.591Z,98700.81
2019-04-26T16:20:18.594Z,98709.88
2019-04-26T16:22:53.268Z,98705.14
2019-04-26T16:25:25.937Z,98703.16
2019-04-26T16:28:15.799Z,98704.00
2019-04-26T16:31:11.037Z,98705.23
2019-04-26T16:33:44.813Z,98708.52
2019-04-26T16:36:16.941Z,98707.50
2019-04-26T16:38:54.755Z,98713.18
2019-04-26T16:41:27.546Z,98713.18
2019-04-26T16:44:02.633Z,98711.97
2019-04-26T16:46:35.812Z,98718.91
2019-04-26T16:49:11.671Z,98720.77
2019-04-26T16:51:43.147Z,98720.77
2019-04-26T16:54:21.047Z,98725.40
2019-04-26T16:56:49.969Z,98720.03
2019-04-26T16:59:26.608Z,98712.92
2019-04-26T17:02:01.440Z,98720.84
2019-04-26T17:04:35.097Z,98720.42
2019-04-26T17:07:05.501Z,98725.56
2019-04-26T17:09:57.051Z,98719.56
2019-04-26T17:12:14.834Z,98718.86
2019-04-26T17:14:48.830Z,98718.86
2019-04-26T17:17:19.890Z,98716.03
2019-04-26T17:19:52.239Z,98716.03
2019-04-26T17:23:01.124Z,98713.28
2019-04-26T17:25:59.054Z,98713.28
2019-04-26T17:28:32.986Z,98709.13
2019-04-26T17:31:05.863Z,98709.77
2019-04-26T17:33:37.815Z,98706.69
2019-04-26T17:36:11.435Z,98707.31
2019-04-26T17:38:44.759Z,98706.82
2019-04-26T17:41:17.089Z,98707.21
2019-04-26T17:43:53.326Z,98700.70
2019-04-26T17:46:23.530Z,98697.09
2019-04-26T17:48:55.786Z,98704.38
2019-04-26T17:51:28.347Z,98701.30
2019-04-26T17:54:21.303Z,98701.72
2019-04-26T17:56:39.567Z,98701.72
2019-04-26T17:59:30.078Z,98708.98
2019-04-26T18:01:48.120Z,98707.67
2019-04-26T18:04:32.379Z,98714.99
2019-04-26T18:07:02.975Z,98708.11
2019-04-26T18:09:41.681Z,98707.33
2019-04-26T18:12:03.611Z,98714.69
2019-04-26T18:14:36.090Z,98710.54
2019-04-26T18:17:40.320Z,98708.94
2019-04-26T18:20:37.463Z,98708.94
2019-04-26T18:23:15.455Z,98708.78
2019-04-26T18:25:47.109Z,98707.31
2019-04-26T18:28:19.735Z,98708.98
2019-04-26T18:30:53.099Z,98708.98
2019-04-26T18:33:26.069Z,98703.97
2019-04-26T18:35:58.195Z,98704.24
2019-04-26T18:38:31.081Z,98699.39
2019-04-26T18:41:03.726Z,98699.39
2019-04-26T18:43:36.195Z,98694.03
2019-04-26T18:46:15.717Z,98689.23
2019-04-26T18:48:48.204Z,98688.95
2019-04-26T18:51:20.330Z,98688.95
2019-04-26T18:54:17.696Z,98686.35
2019-04-26T18:56:53.313Z,98690.98
2019-04-26T18:59:27.854Z,98674.61
2019-04-26T19:01:59.554Z,98674.61
2019-04-26T19:04:33.466Z,98674.90
2019-04-26T19:07:05.271Z,98674.39
2019-04-26T19:09:56.566Z,98674.39
2019-04-26T19:12:12.333Z,98669.20
2019-04-26T19:15:04.169Z,98670.98
2019-04-26T19:17:51.500Z,98670.66
2019-04-26T19:20:48.462Z,98670.66
2019-04-26T19:23:24.439Z,98669.00
2019-04-26T19:25:55.386Z,98669.00
2019-04-26T19:28:27.326Z,98671.22
2019-04-26T19:30:58.930Z,98667.85
2019-04-26T19:33:31.385Z,98670.70
2019-04-26T19:36:03.179Z,98673.30
2019-04-26T19:38:35.479Z,98670.25
2019-04-26T19:41:07.408Z,98672.75
2019-04-26T19:43:44.959Z,98672.84
2019-04-26T19:46:25.306Z,98669.33
2019-04-26T19:49:14.660Z,98668.91
2019-04-26T19:52:04.225Z,98668.91
2019-04-26T19:54:50.609Z,98675.01
2019-04-26T19:57:25.040Z,98670.03
2019-04-26T19:59:56.789Z,98677.22
2019-04-26T20:02:35.852Z,98670.16
2019-04-26T20:05:06.082Z,98665.13
2019-04-26T20:07:37.153Z,98669.72
2019-04-26T20:10:09.475Z,98669.72
2019-04-26T20:12:41.559Z,98667.63
2019-04-26T20:15:25.341Z,98662.33
2019-04-26T20:17:52.532Z,98665.78
2019-04-26T20:20:23.677Z,98659.00
2019-04-26T20:22:59.266Z,98659.02
2019-04-26T20:25:30.066Z,98651.38
2019-04-26T20:28:03.293Z,98651.12
2019-04-26T20:30:53.342Z,98651.12
2019-04-26T20:33:26.720Z,98652.58
2019-04-26T20:36:01.892Z,98648.25
2019-04-26T20:38:42.831Z,98647.13
2019-04-26T20:41:08.123Z,98635.11
2019-04-26T20:43:46.103Z,98635.11
2019-04-26T20:46:17.117Z,98642.95
2019-04-26T20:48:49.148Z,98642.23
2019-04-26T20:51:22.491Z,98641.34
2019-04-26T20:53:55.605Z,98641.34
2019-04-26T20:56:27.618Z,98635.66
2019-04-26T20:59:01.488Z,98635.66
2019-04-26T21:01:33.909Z,98630.25
2019-04-26T21:04:06.214Z,98634.16
2019-04-26T21:06:38.400Z,98629.92
2019-04-26T21:09:13.552Z,98631.00
2019-04-26T21:11:46.103Z,98631.00
2019-04-26T21:14:17.898Z,98626.77
2019-04-26T21:16:50.573Z,98631.66
2019-04-26T21:19:22.846Z,98629.26
2019-04-26T21:21:55.108Z,98629.26
2019-04-26T21:24:28.411Z,98625.91
2019-04-26T21:27:21.527Z,98626.38
2019-04-26T21:30:09.826Z,98622.77
2019-04-26T21:33:04.185Z,98630.05
2019-04-26T21:35:44.399Z,98627.20
2019-04-26T21:38:34.145Z,98620.77
2019-04-26T21:41:26.962Z,98620.77
2019-04-26T21:43:59.281Z,98630.55
2019-04-26T21:46:31.682Z,98627.36
2019-04-26T21:49:03.832Z,98629.87
2019-04-26T21:51:36.413Z,98626.92
2019-04-26T21:54:08.493Z,98625.69
2019-04-26T21:56:42.790Z,98625.69
2019-04-26T21:59:13.858Z,98627.33
2019-04-26T22:01:48.188Z,98634.91
2019-04-26T22:04:22.756Z,98633.20
2019-04-26T22:06:55.704Z,98631.76
2019-04-26T22:09:48.069Z,98631.61
2019-04-26T22:12:23.308Z,98632.69
2019-04-26T22:15:04.257Z,98636.63
2019-04-26T22:17:40.552Z,98634.76
2019-04-26T22:20:20.828Z,98634.76
2019-04-26T22:23:18.383Z,98634.66
2019-04-26T22:25:54.082Z,98631.44
2019-04-26T22:28:26.972Z,98636.58
2019-04-26T22:31:06.918Z,98638.76
2019-04-26T22:33:34.221Z,98638.76
2019-04-26T22:36:06.510Z,98634.36
2019-04-26T22:38:38.399Z,98640.14
2019-04-26T22:41:10.776Z,98641.63
2019-04-26T22:44:13.887Z,98638.88
2019-04-26T22:46:51.115Z,98643.39
2019-04-26T22:49:24.328Z,98644.84
2019-04-26T22:51:56.504Z,98648.16
2019-04-26T22:54:28.180Z,98648.16
2019-04-26T22:57:00.001Z,98640.39
2019-04-26T22:59:31.757Z,98640.39
2019-04-26T23:02:04.415Z,98643.51
2019-04-26T23:04:36.058Z,98650.77
2019-04-26T23:07:08.655Z,98656.59
2019-04-26T23:09:40.308Z,98656.59
2019-04-26T23:12:30.684Z,98657.26
2019-04-26T23:15:30.191Z,98658.33
2019-04-26T23:18:16.021Z,98654.71
2019-04-26T23:20:56.114Z,98660.36
2019-04-26T23:23:28.022Z,98660.36
2019-04-26T23:26:02.377Z,98664.47
2019-04-26T23:28:36.833Z,98663.26
2019-04-26T23:31:08.188Z,98668.70
2019-04-26T23:33:40.515Z,98670.59
2019-04-26T23:36:13.619Z,98670.59
2019-04-26T23:38:45.642Z,98668.38
2019-04-26T23:41:17.390Z,98674.47
2019-04-26T23:43:48.824Z,98675.34
2019-04-26T23:46:22.875Z,98675.56
2019-04-26T23:48:56.699Z,98675.56
2019-04-26T23:51:29.091Z,98681.73
2019-04-26T23:54:01.095Z,98679.27
2019-04-26T23:56:33.464Z,98679.27
2019-04-26T23:59:05.472Z,98684.73
